• Join FlightAware (Why Join?)
  • Login
  • US Flag 
08:57PM EDT


 

Airport Tracker/Info


-or-


 

Live Flight TrackerFlight Track Log ✈ UCA4838 ✈ 11-May-2013 ✈ KALB - KEWR

Flight Track Log - Related Links

Times and Time Zones

All times are in EDT time to prevent confusion due to time zone crossing. See the UCA4838 flight status page for this flight to view local times or setup timezone preferences in your user account.

Time Position Orientation Groundspeed Altitude Reporting Facility
EDT Latitude Longitude Course Direction KTS MPH feet Rate Location/Type
10:24AM 42.7297 -73.8081 198° South 114 131 1,400  Level Boston Center
10:25AM 42.6922 -73.8242 198° South 177 204 2,100 960 Climbing Boston Center
10:26AM 42.6458 -73.8628 211° Southwest 197 227 3,400 1,320 Climbing Boston Center
10:27AM 42.6017 -73.8983 211° Southwest 184 212 4,800 1,140 Climbing Boston Center
10:28AM 42.5572 -73.9311 209° Southwest 181 208 5,800 960 Climbing Boston Center
10:29AM 42.5111 -73.9667 210° Southwest 194 223 6,800 1,080 Climbing Boston Center
10:31AM 42.4583 -74.0103 211° Southwest 196 226 8,100 1,080 Climbing Boston Center
10:32AM 42.4078 -74.0456 207° Southwest 210 242 9,200 780 Climbing Boston Center
10:33AM 42.3614 -74.0839 211° Southwest 205 236 9,800 300 Climbing Boston Center
10:34AM 42.3086 -74.1244 210° Southwest 210 242 9,900 60 Climbing Boston Center
10:35AM 42.2517 -74.1708 211° Southwest 233 268 10,000  Climbing Boston Center
10:36AM 42.1908 -74.2056 203° Southwest 238 274 10,000 -60 Level Boston Center
10:37AM 42.1256 -74.2372 200° South 243 280 9,900  Descending Boston Center
10:38AM 42.0669 -74.2664 200° South 243 280 10,000  Climbing Boston Center
10:39AM 42.0017 -74.2981 200° South 243 280 10,000 -60 Level Boston Center
10:40AM 41.9408 -74.3269 199° South 243 280 9,900 -420 Descending Boston Center
10:41AM 41.8756 -74.3583 200° South 243 280 9,200 -840 Descending Boston Center
10:42AM 41.8106 -74.3897 200° South 248 285 8,300 -780 Descending Boston Center
10:43AM 41.7475 -74.4183 199° South 248 285 7,700 -540 Descending Boston Center
10:44AM 41.6906 -74.4472 201° Southwest 248 285 7,300 -300 Descending Boston Center
10:45AM 41.6192 -74.4811 200° South 248 285 7,100 -180 Descending Boston Center
10:46AM 41.5625 -74.5097 201° Southwest 248 285 7,000 -360 Descending Boston Center
10:47AM 41.4931 -74.5408 199° South 248 285 6,400 -300 Descending Boston Center
10:49AM 41.3500 -74.5333 178° South 238 274 6,100 -180 Descending New York TRACON
10:50AM 41.3000 -74.5000 153° Southeast 241 277 5,800 -780 Descending New York TRACON
10:51AM 41.2333 -74.4333 143° Southeast 256 295 4,700 -900 Descending New York TRACON
10:52AM 41.1833 -74.3833 143° Southeast 239 275 4,000 -360 Descending New York TRACON
10:53AM 41.1333 -74.3333 143° Southeast 251 289 4,100  Climbing New York TRACON
10:54AM 41.0833 -74.2833 143° Southeast 242 278 4,000 -60 Descending New York TRACON
10:55AM 41.0167 -74.2333 150° Southeast 244 281 4,000  Level New York TRACON
10:56AM 40.9667 -74.1833 143° Southeast 248 285 4,000 -420 Level New York TRACON
10:57AM 40.9167 -74.1333 143° Southeast 251 289 3,300 -540 Descending New York TRACON
10:58AM 40.8667 -74.0667 135° Southeast 252 290 3,000 -540 Descending New York TRACON
10:59AM 40.8000 -74.1000 201° Southwest 213 245 2,300 -900 Descending New York TRACON
11:00AM 40.7500 -74.1167 194° South 175 201 1,300 -900 Descending New York TRACON
11:01AM 40.7167 -74.1500 217° Southwest 130 150 600 -720 Descending New York TRACON
11:03AM 40.6925 -74.1687 169° South  Level Estimated
11:10AM 40.6925 -74.1687 169° South  Level Estimated
11:11AM 40.6925 -74.1687 169° South  Level Estimated